sensor_id;sensor_type;location;lat;lon;timestamp;temperature;humidity
25112;DHT22;13092;51.996;4.458;2023-03-02T00:01:03;3.20;99.90
25112;DHT22;13092;51.996;4.458;2023-03-02T00:03:36;3.20;99.90
25112;DHT22;13092;51.996;4.458;2023-03-02T00:06:08;3.20;99.90
25112;DHT22;13092;51.996;4.458;2023-03-02T00:08:37;3.20;99.90
25112;DHT22;13092;51.996;4.458;2023-03-02T00:11:08;3.20;99.90
25112;DHT22;13092;51.996;4.458;2023-03-02T00:13:37;3.20;99.90
25112;DHT22;13092;51.996;4.458;2023-03-02T00:16:06;3.20;99.90
25112;DHT22;13092;51.996;4.458;2023-03-02T00:18:34;3.10;99.90
25112;DHT22;13092;51.996;4.458;2023-03-02T00:21:03;3.10;99.90
25112;DHT22;13092;51.996;4.458;2023-03-02T00:23:31;3.20;99.90
25112;DHT22;13092;51.996;4.458;2023-03-02T00:25:59;3.20;99.90
25112;DHT22;13092;51.996;4.458;2023-03-02T00:28:29;3.20;99.90
25112;DHT22;13092;51.996;4.458;2023-03-02T00:30:57;3.20;99.90
25112;DHT22;13092;51.996;4.458;2023-03-02T00:33:25;3.20;99.90
25112;DHT22;13092;51.996;4.458;2023-03-02T00:35:53;3.20;99.90
25112;DHT22;13092;51.996;4.458;2023-03-02T00:38:22;3.20;99.90
25112;DHT22;13092;51.996;4.458;2023-03-02T00:40:50;3.20;99.90
25112;DHT22;13092;51.996;4.458;2023-03-02T00:43:18;3.20;99.90
25112;DHT22;13092;51.996;4.458;2023-03-02T00:45:49;3.20;99.90
25112;DHT22;13092;51.996;4.458;2023-03-02T00:48:17;3.20;99.90
25112;DHT22;13092;51.996;4.458;2023-03-02T00:50:46;3.20;99.90
25112;DHT22;13092;51.996;4.458;2023-03-02T00:53:14;3.10;99.90
25112;DHT22;13092;51.996;4.458;2023-03-02T00:55:52;3.10;99.90
25112;DHT22;13092;51.996;4.458;2023-03-02T00:58:20;3.00;99.90
25112;DHT22;13092;51.996;4.458;2023-03-02T01:00:50;3.00;99.90
25112;DHT22;13092;51.996;4.458;2023-03-02T01:03:18;3.00;99.90
25112;DHT22;13092;51.996;4.458;2023-03-02T01:05:47;2.90;99.90
25112;DHT22;13092;51.996;4.458;2023-03-02T01:08:15;2.90;99.90
25112;DHT22;13092;51.996;4.458;2023-03-02T01:10:43;2.90;99.90
25112;DHT22;13092;51.996;4.458;2023-03-02T01:13:11;2.90;99.90
25112;DHT22;13092;51.996;4.458;2023-03-02T01:15:39;2.80;99.90
25112;DHT22;13092;51.996;4.458;2023-03-02T01:18:09;2.80;99.90
25112;DHT22;13092;51.996;4.458;2023-03-02T01:20:40;2.80;99.90
25112;DHT22;13092;51.996;4.458;2023-03-02T01:23:08;2.80;99.90
25112;DHT22;13092;51.996;4.458;2023-03-02T01:25:36;2.80;99.90
25112;DHT22;13092;51.996;4.458;2023-03-02T01:28:05;2.80;99.90
25112;DHT22;13092;51.996;4.458;2023-03-02T01:30:33;2.70;99.90
25112;DHT22;13092;51.996;4.458;2023-03-02T01:33:01;2.70;99.90
25112;DHT22;13092;51.996;4.458;2023-03-02T01:35:38;2.70;99.90
25112;DHT22;13092;51.996;4.458;2023-03-02T01:38:06;2.60;99.90
25112;DHT22;13092;51.996;4.458;2023-03-02T01:40:34;2.70;99.90
25112;DHT22;13092;51.996;4.458;2023-03-02T01:43:13;2.60;99.90
25112;DHT22;13092;51.996;4.458;2023-03-02T01:45:46;2.60;99.90
25112;DHT22;13092;51.996;4.458;2023-03-02T01:48:17;2.50;99.90
25112;DHT22;13092;51.996;4.458;2023-03-02T01:50:47;2.40;99.90
25112;DHT22;13092;51.996;4.458;2023-03-02T01:53:15;2.40;99.90
25112;DHT22;13092;51.996;4.458;2023-03-02T01:55:44;2.30;99.90
25112;DHT22;13092;51.996;4.458;2023-03-02T01:58:14;2.30;99.90
25112;DHT22;13092;51.996;4.458;2023-03-02T02:00:44;2.20;99.90
25112;DHT22;13092;51.996;4.458;2023-03-02T02:03:15;2.10;99.90
25112;DHT22;13092;51.996;4.458;2023-03-02T02:05:54;2.10;99.90
25112;DHT22;13092;51.996;4.458;2023-03-02T02:08:25;2.10;99.90
25112;DHT22;13092;51.996;4.458;2023-03-02T02:10:53;2.10;99.90
25112;DHT22;13092;51.996;4.458;2023-03-02T02:13:22;2.00;99.90
25112;DHT22;13092;51.996;4.458;2023-03-02T02:15:50;2.00;99.90
25112;DHT22;13092;51.996;4.458;2023-03-02T02:18:18;2.00;99.90
25112;DHT22;13092;51.996;4.458;2023-03-02T02:20:48;2.00;99.90
25112;DHT22;13092;51.996;4.458;2023-03-02T02:23:26;2.00;99.90
25112;DHT22;13092;51.996;4.458;2023-03-02T02:26:03;2.00;99.90
25112;DHT22;13092;51.996;4.458;2023-03-02T02:28:38;2.00;99.90
25112;DHT22;13092;51.996;4.458;2023-03-02T02:31:12;2.00;99.90
25112;DHT22;13092;51.996;4.458;2023-03-02T02:33:44;2.10;99.90
25112;DHT22;13092;51.996;4.458;2023-03-02T02:36:19;2.00;99.90
25112;DHT22;13092;51.996;4.458;2023-03-02T02:38:51;2.10;99.90
25112;DHT22;13092;51.996;4.458;2023-03-02T02:41:24;2.00;99.90
25112;DHT22;13092;51.996;4.458;2023-03-02T02:43:54;2.00;99.90
25112;DHT22;13092;51.996;4.458;2023-03-02T02:46:24;2.00;99.90
25112;DHT22;13092;51.996;4.458;2023-03-02T02:48:53;2.00;99.90
25112;DHT22;13092;51.996;4.458;2023-03-02T02:51:24;2.10;99.90
25112;DHT22;13092;51.996;4.458;2023-03-02T02:53:56;2.10;99.90
25112;DHT22;13092;51.996;4.458;2023-03-02T02:56:32;2.00;99.90
25112;DHT22;13092;51.996;4.458;2023-03-02T02:59:04;2.00;99.90
25112;DHT22;13092;51.996;4.458;2023-03-02T03:01:34;2.00;99.90
25112;DHT22;13092;51.996;4.458;2023-03-02T03:04:04;2.00;99.90
25112;DHT22;13092;51.996;4.458;2023-03-02T03:06:34;2.00;99.90
25112;DHT22;13092;51.996;4.458;2023-03-02T03:09:09;2.10;99.90
25112;DHT22;13092;51.996;4.458;2023-03-02T03:11:40;2.00;99.90
25112;DHT22;13092;51.996;4.458;2023-03-02T03:14:10;2.10;99.90
25112;DHT22;13092;51.996;4.458;2023-03-02T03:16:40;2.00;99.90
25112;DHT22;13092;51.996;4.458;2023-03-02T03:19:13;2.00;99.90
25112;DHT22;13092;51.996;4.458;2023-03-02T03:21:42;2.00;99.90
25112;DHT22;13092;51.996;4.458;2023-03-02T03:24:11;2.00;99.90
25112;DHT22;13092;51.996;4.458;2023-03-02T03:26:41;2.00;99.90
25112;DHT22;13092;51.996;4.458;2023-03-02T03:29:09;2.00;99.90
25112;DHT22;13092;51.996;4.458;2023-03-02T03:31:37;2.00;99.90
25112;DHT22;13092;51.996;4.458;2023-03-02T03:34:07;2.00;99.90
25112;DHT22;13092;51.996;4.458;2023-03-02T03:36:35;2.00;99.90
25112;DHT22;13092;51.996;4.458;2023-03-02T03:39:05;1.90;99.90
25112;DHT22;13092;51.996;4.458;2023-03-02T03:41:33;2.00;99.90
25112;DHT22;13092;51.996;4.458;2023-03-02T03:44:02;2.00;99.90
25112;DHT22;13092;51.996;4.458;2023-03-02T03:46:33;2.00;99.90
25112;DHT22;13092;51.996;4.458;2023-03-02T03:49:03;2.10;99.90
25112;DHT22;13092;51.996;4.458;2023-03-02T03:51:32;2.00;99.90
25112;DHT22;13092;51.996;4.458;2023-03-02T03:54:01;2.00;99.90
25112;DHT22;13092;51.996;4.458;2023-03-02T03:56:34;2.00;99.90
25112;DHT22;13092;51.996;4.458;2023-03-02T03:59:05;2.00;99.90
25112;DHT22;13092;51.996;4.458;2023-03-02T04:01:35;2.00;99.90
25112;DHT22;13092;51.996;4.458;2023-03-02T04:04:04;2.00;99.90
25112;DHT22;13092;51.996;4.458;2023-03-02T04:06:33;2.00;99.90
25112;DHT22;13092;51.996;4.458;2023-03-02T04:09:01;2.00;99.90
25112;DHT22;13092;51.996;4.458;2023-03-02T04:11:31;1.90;99.90
25112;DHT22;13092;51.996;4.458;2023-03-02T04:13:59;2.00;99.90
25112;DHT22;13092;51.996;4.458;2023-03-02T04:16:29;2.20;99.90
25112;DHT22;13092;51.996;4.458;2023-03-02T04:18:59;2.00;99.90
25112;DHT22;13092;51.996;4.458;2023-03-02T04:21:27;2.00;99.90
25112;DHT22;13092;51.996;4.458;2023-03-02T04:23:55;2.00;99.90
25112;DHT22;13092;51.996;4.458;2023-03-02T04:26:23;2.00;99.90
25112;DHT22;13092;51.996;4.458;2023-03-02T04:28:52;2.00;99.90
25112;DHT22;13092;51.996;4.458;2023-03-02T04:31:20;2.00;99.90
25112;DHT22;13092;51.996;4.458;2023-03-02T04:33:50;2.00;99.90
25112;DHT22;13092;51.996;4.458;2023-03-02T04:36:18;2.00;99.90
25112;DHT22;13092;51.996;4.458;2023-03-02T04:38:49;2.00;99.90
25112;DHT22;13092;51.996;4.458;2023-03-02T04:41:17;2.00;99.90
25112;DHT22;13092;51.996;4.458;2023-03-02T04:43:46;2.00;99.90
25112;DHT22;13092;51.996;4.458;2023-03-02T04:46:15;2.00;99.90
25112;DHT22;13092;51.996;4.458;2023-03-02T04:48:45;2.00;99.90
25112;DHT22;13092;51.996;4.458;2023-03-02T04:51:18;1.90;99.90
25112;DHT22;13092;51.996;4.458;2023-03-02T04:53:49;2.10;99.90
25112;DHT22;13092;51.996;4.458;2023-03-02T04:56:18;2.00;99.90
25112;DHT22;13092;51.996;4.458;2023-03-02T04:58:46;2.00;99.90
25112;DHT22;13092;51.996;4.458;2023-03-02T05:01:17;2.00;99.90
25112;DHT22;13092;51.996;4.458;2023-03-02T05:03:46;2.00;99.90
25112;DHT22;13092;51.996;4.458;2023-03-02T05:06:16;2.00;99.90
25112;DHT22;13092;51.996;4.458;2023-03-02T05:08:44;2.00;99.90
25112;DHT22;13092;51.996;4.458;2023-03-02T05:11:13;2.00;99.90
25112;DHT22;13092;51.996;4.458;2023-03-02T05:13:47;2.00;99.90
25112;DHT22;13092;51.996;4.458;2023-03-02T05:16:16;2.00;99.90
25112;DHT22;13092;51.996;4.458;2023-03-02T05:18:44;2.00;99.90
25112;DHT22;13092;51.996;4.458;2023-03-02T05:21:14;2.00;99.90
25112;DHT22;13092;51.996;4.458;2023-03-02T05:23:44;2.00;99.90
25112;DHT22;13092;51.996;4.458;2023-03-02T05:26:13;2.00;99.90
25112;DHT22;13092;51.996;4.458;2023-03-02T05:28:41;2.00;99.90
25112;DHT22;13092;51.996;4.458;2023-03-02T05:33:43;2.00;99.90
25112;DHT22;13092;51.996;4.458;2023-03-02T05:36:11;1.90;99.90
25112;DHT22;13092;51.996;4.458;2023-03-02T05:38:39;1.90;99.90
25112;DHT22;13092;51.996;4.458;2023-03-02T05:41:09;1.90;99.90
25112;DHT22;13092;51.996;4.458;2023-03-02T05:43:38;1.90;99.90
25112;DHT22;13092;51.996;4.458;2023-03-02T05:46:06;1.90;99.90
25112;DHT22;13092;51.996;4.458;2023-03-02T05:48:40;1.90;99.90
25112;DHT22;13092;51.996;4.458;2023-03-02T05:51:11;1.80;99.90
25112;DHT22;13092;51.996;4.458;2023-03-02T05:53:39;1.80;99.90
25112;DHT22;13092;51.996;4.458;2023-03-02T05:56:09;1.80;99.90
25112;DHT22;13092;51.996;4.458;2023-03-02T05:58:37;1.80;99.90
25112;DHT22;13092;51.996;4.458;2023-03-02T06:01:07;1.80;99.90
25112;DHT22;13092;51.996;4.458;2023-03-02T06:03:35;1.90;99.90
25112;DHT22;13092;51.996;4.458;2023-03-02T06:06:04;1.90;99.90
25112;DHT22;13092;51.996;4.458;2023-03-02T06:08:32;1.90;99.90
25112;DHT22;13092;51.996;4.458;2023-03-02T06:11:00;1.90;99.90
25112;DHT22;13092;51.996;4.458;2023-03-02T06:13:29;1.80;99.90
25112;DHT22;13092;51.996;4.458;2023-03-02T06:15:57;1.80;99.90
25112;DHT22;13092;51.996;4.458;2023-03-02T06:18:26;1.80;99.90
25112;DHT22;13092;51.996;4.458;2023-03-02T06:20:54;1.80;99.90
25112;DHT22;13092;51.996;4.458;2023-03-02T06:23:22;1.80;99.90
25112;DHT22;13092;51.996;4.458;2023-03-02T06:25:50;1.80;99.90
25112;DHT22;13092;51.996;4.458;2023-03-02T06:28:21;1.80;99.90
25112;DHT22;13092;51.996;4.458;2023-03-02T06:30:51;1.80;99.90
25112;DHT22;13092;51.996;4.458;2023-03-02T06:33:19;1.80;99.90
25112;DHT22;13092;51.996;4.458;2023-03-02T06:35:47;1.90;99.90
25112;DHT22;13092;51.996;4.458;2023-03-02T06:38:16;1.80;99.90
25112;DHT22;13092;51.996;4.458;2023-03-02T06:40:44;1.80;99.90
25112;DHT22;13092;51.996;4.458;2023-03-02T06:43:12;1.80;99.90
25112;DHT22;13092;51.996;4.458;2023-03-02T06:45:41;1.80;99.90
25112;DHT22;13092;51.996;4.458;2023-03-02T06:48:10;1.70;99.90
25112;DHT22;13092;51.996;4.458;2023-03-02T06:50:38;1.70;99.90
25112;DHT22;13092;51.996;4.458;2023-03-02T06:53:07;1.70;99.90
25112;DHT22;13092;51.996;4.458;2023-03-02T06:55:35;1.80;99.90
25112;DHT22;13092;51.996;4.458;2023-03-02T06:58:03;1.80;99.90
25112;DHT22;13092;51.996;4.458;2023-03-02T07:00:31;1.70;99.90
25112;DHT22;13092;51.996;4.458;2023-03-02T07:02:59;1.70;99.90
25112;DHT22;13092;51.996;4.458;2023-03-02T07:05:28;1.70;99.90
25112;DHT22;13092;51.996;4.458;2023-03-02T07:07:58;1.70;99.90
25112;DHT22;13092;51.996;4.458;2023-03-02T07:10:26;1.70;99.90
25112;DHT22;13092;51.996;4.458;2023-03-02T07:12:54;1.70;99.90
25112;DHT22;13092;51.996;4.458;2023-03-02T07:15:22;1.80;99.90
25112;DHT22;13092;51.996;4.458;2023-03-02T07:17:51;1.80;99.90
25112;DHT22;13092;51.996;4.458;2023-03-02T07:20:19;1.80;99.90
25112;DHT22;13092;51.996;4.458;2023-03-02T07:22:48;1.80;99.90
25112;DHT22;13092;51.996;4.458;2023-03-02T07:25:17;1.80;99.90
25112;DHT22;13092;51.996;4.458;2023-03-02T07:27:45;1.80;99.90
25112;DHT22;13092;51.996;4.458;2023-03-02T07:30:13;1.80;99.90
25112;DHT22;13092;51.996;4.458;2023-03-02T07:32:44;1.80;99.90
25112;DHT22;13092;51.996;4.458;2023-03-02T07:35:12;1.90;99.90
25112;DHT22;13092;51.996;4.458;2023-03-02T07:37:40;1.90;99.90
25112;DHT22;13092;51.996;4.458;2023-03-02T07:40:12;2.00;99.90
25112;DHT22;13092;51.996;4.458;2023-03-02T07:42:43;1.90;99.90
25112;DHT22;13092;51.996;4.458;2023-03-02T07:45:11;2.10;99.90
25112;DHT22;13092;51.996;4.458;2023-03-02T07:47:39;2.00;99.90
25112;DHT22;13092;51.996;4.458;2023-03-02T07:50:08;2.10;99.90
25112;DHT22;13092;51.996;4.458;2023-03-02T07:52:37;2.10;99.90
25112;DHT22;13092;51.996;4.458;2023-03-02T07:55:06;2.10;99.90
25112;DHT22;13092;51.996;4.458;2023-03-02T07:57:36;2.10;99.90
25112;DHT22;13092;51.996;4.458;2023-03-02T08:00:06;2.20;99.90
25112;DHT22;13092;51.996;4.458;2023-03-02T08:02:34;2.30;99.90
25112;DHT22;13092;51.996;4.458;2023-03-02T08:05:02;2.20;99.90
25112;DHT22;13092;51.996;4.458;2023-03-02T08:07:31;2.30;99.90
25112;DHT22;13092;51.996;4.458;2023-03-02T08:09:59;2.30;99.90
25112;DHT22;13092;51.996;4.458;2023-03-02T08:12:28;2.20;99.90
25112;DHT22;13092;51.996;4.458;2023-03-02T08:14:57;2.30;99.90
25112;DHT22;13092;51.996;4.458;2023-03-02T08:17:26;2.30;99.90
25112;DHT22;13092;51.996;4.458;2023-03-02T08:19:54;2.40;99.90
25112;DHT22;13092;51.996;4.458;2023-03-02T08:22:23;2.50;99.90
25112;DHT22;13092;51.996;4.458;2023-03-02T08:24:51;2.50;99.90
25112;DHT22;13092;51.996;4.458;2023-03-02T08:27:20;2.50;99.90
25112;DHT22;13092;51.996;4.458;2023-03-02T08:29:48;2.50;99.90
25112;DHT22;13092;51.996;4.458;2023-03-02T08:32:18;2.60;99.90
25112;DHT22;13092;51.996;4.458;2023-03-02T08:34:46;2.60;99.90
25112;DHT22;13092;51.996;4.458;2023-03-02T08:37:17;2.60;99.90
25112;DHT22;13092;51.996;4.458;2023-03-02T08:39:46;2.80;99.90
25112;DHT22;13092;51.996;4.458;2023-03-02T08:42:14;2.70;99.90
25112;DHT22;13092;51.996;4.458;2023-03-02T08:44:43;2.70;99.90
25112;DHT22;13092;51.996;4.458;2023-03-02T08:47:11;2.70;99.90
25112;DHT22;13092;51.996;4.458;2023-03-02T08:49:41;2.80;99.90
25112;DHT22;13092;51.996;4.458;2023-03-02T08:52:10;2.70;99.90
25112;DHT22;13092;51.996;4.458;2023-03-02T08:54:41;2.70;99.90
25112;DHT22;13092;51.996;4.458;2023-03-02T08:57:10;2.90;99.90
25112;DHT22;13092;51.996;4.458;2023-03-02T08:59:38;2.90;99.90
25112;DHT22;13092;51.996;4.458;2023-03-02T09:02:09;2.90;99.90
25112;DHT22;13092;51.996;4.458;2023-03-02T09:04:37;3.00;99.90
25112;DHT22;13092;51.996;4.458;2023-03-02T09:07:07;3.00;99.90
25112;DHT22;13092;51.996;4.458;2023-03-02T09:09:37;3.10;99.90
25112;DHT22;13092;51.996;4.458;2023-03-02T09:12:06;3.10;99.90
25112;DHT22;13092;51.996;4.458;2023-03-02T09:14:34;3.10;99.90
25112;DHT22;13092;51.996;4.458;2023-03-02T09:17:03;3.20;99.90
25112;DHT22;13092;51.996;4.458;2023-03-02T09:19:31;3.30;99.90
25112;DHT22;13092;51.996;4.458;2023-03-02T09:22:11;3.30;99.90
25112;DHT22;13092;51.996;4.458;2023-03-02T09:24:40;3.40;99.90
25112;DHT22;13092;51.996;4.458;2023-03-02T09:27:08;3.50;99.90
25112;DHT22;13092;51.996;4.458;2023-03-02T09:29:41;3.50;99.90
25112;DHT22;13092;51.996;4.458;2023-03-02T09:32:18;3.80;99.90
25112;DHT22;13092;51.996;4.458;2023-03-02T09:34:54;3.70;99.90
25112;DHT22;13092;51.996;4.458;2023-03-02T09:37:29;3.80;99.90
25112;DHT22;13092;51.996;4.458;2023-03-02T09:39:58;3.90;99.90
25112;DHT22;13092;51.996;4.458;2023-03-02T09:42:48;3.90;99.90
25112;DHT22;13092;51.996;4.458;2023-03-02T09:45:28;4.00;99.90
25112;DHT22;13092;51.996;4.458;2023-03-02T09:48:14;4.10;99.90
25112;DHT22;13092;51.996;4.458;2023-03-02T09:50:54;4.20;99.90
25112;DHT22;13092;51.996;4.458;2023-03-02T09:53:36;4.20;99.90
25112;DHT22;13092;51.996;4.458;2023-03-02T09:56:13;4.20;99.90
25112;DHT22;13092;51.996;4.458;2023-03-02T09:59:10;4.40;99.90
25112;DHT22;13092;51.996;4.458;2023-03-02T10:02:23;4.50;99.90
25112;DHT22;13092;51.996;4.458;2023-03-02T10:04:57;4.50;99.90
25112;DHT22;13092;51.996;4.458;2023-03-02T10:07:28;4.50;99.90
25112;DHT22;13092;51.996;4.458;2023-03-02T10:10:06;4.50;99.90
25112;DHT22;13092;51.996;4.458;2023-03-02T10:12:50;4.60;99.90
25112;DHT22;13092;51.996;4.458;2023-03-02T10:15:27;4.70;99.90
25112;DHT22;13092;51.996;4.458;2023-03-02T10:18:01;4.70;99.90
25112;DHT22;13092;51.996;4.458;2023-03-02T10:20:37;4.80;99.90
25112;DHT22;13092;51.996;4.458;2023-03-02T10:23:20;4.90;99.90
25112;DHT22;13092;51.996;4.458;2023-03-02T10:25:53;4.90;99.90
25112;DHT22;13092;51.996;4.458;2023-03-02T10:28:29;5.00;99.90
25112;DHT22;13092;51.996;4.458;2023-03-02T10:31:07;5.10;99.90
25112;DHT22;13092;51.996;4.458;2023-03-02T10:33:36;5.10;99.90
25112;DHT22;13092;51.996;4.458;2023-03-02T10:36:14;5.20;99.90
25112;DHT22;13092;51.996;4.458;2023-03-02T10:38:46;5.20;99.90
25112;DHT22;13092;51.996;4.458;2023-03-02T10:41:20;5.10;99.90
25112;DHT22;13092;51.996;4.458;2023-03-02T10:43:54;5.20;99.90
25112;DHT22;13092;51.996;4.458;2023-03-02T10:46:22;5.30;99.90
25112;DHT22;13092;51.996;4.458;2023-03-02T10:48:57;5.40;99.90
25112;DHT22;13092;51.996;4.458;2023-03-02T10:51:28;5.70;99.90
25112;DHT22;13092;51.996;4.458;2023-03-02T10:54:08;5.60;99.90
25112;DHT22;13092;51.996;4.458;2023-03-02T10:56:41;5.60;99.90
25112;DHT22;13092;51.996;4.458;2023-03-02T10:59:39;5.60;99.90
25112;DHT22;13092;51.996;4.458;2023-03-02T11:02:15;5.70;99.90
25112;DHT22;13092;51.996;4.458;2023-03-02T11:04:44;5.80;99.90
25112;DHT22;13092;51.996;4.458;2023-03-02T11:07:16;5.70;99.90
25112;DHT22;13092;51.996;4.458;2023-03-02T11:09:56;5.80;99.90
25112;DHT22;13092;51.996;4.458;2023-03-02T11:12:26;5.80;99.90
25112;DHT22;13092;51.996;4.458;2023-03-02T11:15:13;5.90;99.90
25112;DHT22;13092;51.996;4.458;2023-03-02T11:17:45;5.90;99.90
25112;DHT22;13092;51.996;4.458;2023-03-02T11:20:16;6.00;99.90
25112;DHT22;13092;51.996;4.458;2023-03-02T11:22:56;6.10;99.90
25112;DHT22;13092;51.996;4.458;2023-03-02T11:25:30;6.10;99.90
25112;DHT22;13092;51.996;4.458;2023-03-02T11:28:08;6.30;99.90
25112;DHT22;13092;51.996;4.458;2023-03-02T11:30:43;6.40;99.90
25112;DHT22;13092;51.996;4.458;2023-03-02T11:33:18;6.40;99.90
25112;DHT22;13092;51.996;4.458;2023-03-02T11:35:52;6.50;99.90
25112;DHT22;13092;51.996;4.458;2023-03-02T11:38:25;6.60;99.90
25112;DHT22;13092;51.996;4.458;2023-03-02T11:41:02;6.40;99.90
25112;DHT22;13092;51.996;4.458;2023-03-02T11:43:33;6.50;99.90
25112;DHT22;13092;51.996;4.458;2023-03-02T11:46:06;6.60;99.90
25112;DHT22;13092;51.996;4.458;2023-03-02T11:48:49;6.70;99.90
25112;DHT22;13092;51.996;4.458;2023-03-02T11:51:21;6.90;99.90
25112;DHT22;13092;51.996;4.458;2023-03-02T11:53:52;7.00;99.90
25112;DHT22;13092;51.996;4.458;2023-03-02T11:56:23;7.10;99.90
25112;DHT22;13092;51.996;4.458;2023-03-02T11:58:55;7.10;99.90
25112;DHT22;13092;51.996;4.458;2023-03-02T12:01:25;7.20;99.90
25112;DHT22;13092;51.996;4.458;2023-03-02T12:04:05;7.40;99.90
25112;DHT22;13092;51.996;4.458;2023-03-02T12:06:37;7.40;99.90
25112;DHT22;13092;51.996;4.458;2023-03-02T12:09:25;7.30;99.90
25112;DHT22;13092;51.996;4.458;2023-03-02T12:11:58;7.30;99.90
25112;DHT22;13092;51.996;4.458;2023-03-02T12:14:36;7.30;99.90
25112;DHT22;13092;51.996;4.458;2023-03-02T12:17:18;7.20;99.90
25112;DHT22;13092;51.996;4.458;2023-03-02T12:19:48;7.30;99.90
25112;DHT22;13092;51.996;4.458;2023-03-02T12:22:26;7.60;99.90
25112;DHT22;13092;51.996;4.458;2023-03-02T12:25:00;7.50;99.90
25112;DHT22;13092;51.996;4.458;2023-03-02T12:27:34;7.50;99.90
25112;DHT22;13092;51.996;4.458;2023-03-02T12:30:21;7.50;99.90
25112;DHT22;13092;51.996;4.458;2023-03-02T12:33:02;7.60;99.90
25112;DHT22;13092;51.996;4.458;2023-03-02T12:35:34;7.50;99.90
25112;DHT22;13092;51.996;4.458;2023-03-02T12:38:04;7.70;99.90
25112;DHT22;13092;51.996;4.458;2023-03-02T12:40:43;7.50;99.90
25112;DHT22;13092;51.996;4.458;2023-03-02T12:43:30;7.50;99.90
25112;DHT22;13092;51.996;4.458;2023-03-02T12:46:24;7.60;99.90
25112;DHT22;13092;51.996;4.458;2023-03-02T12:49:08;7.70;99.90
25112;DHT22;13092;51.996;4.458;2023-03-02T12:51:49;7.80;99.90
25112;DHT22;13092;51.996;4.458;2023-03-02T12:54:20;7.90;99.90
25112;DHT22;13092;51.996;4.458;2023-03-02T12:56:59;8.10;99.90
25112;DHT22;13092;51.996;4.458;2023-03-02T12:59:28;8.10;99.90
25112;DHT22;13092;51.996;4.458;2023-03-02T13:02:16;8.30;99.90
25112;DHT22;13092;51.996;4.458;2023-03-02T13:04:51;8.30;99.90
25112;DHT22;13092;51.996;4.458;2023-03-02T13:07:23;8.30;99.90
25112;DHT22;13092;51.996;4.458;2023-03-02T13:09:53;8.30;99.90
25112;DHT22;13092;51.996;4.458;2023-03-02T13:12:25;8.40;99.90
25112;DHT22;13092;51.996;4.458;2023-03-02T13:14:57;8.40;99.90
25112;DHT22;13092;51.996;4.458;2023-03-02T13:17:30;8.50;99.90
25112;DHT22;13092;51.996;4.458;2023-03-02T13:20:00;8.40;99.90
25112;DHT22;13092;51.996;4.458;2023-03-02T13:22:30;8.50;99.90
25112;DHT22;13092;51.996;4.458;2023-03-02T13:25:02;8.50;99.90
25112;DHT22;13092;51.996;4.458;2023-03-02T13:27:31;8.40;99.90
25112;DHT22;13092;51.996;4.458;2023-03-02T13:30:18;8.50;99.90
25112;DHT22;13092;51.996;4.458;2023-03-02T13:32:50;8.50;99.90
25112;DHT22;13092;51.996;4.458;2023-03-02T13:35:22;8.70;99.90
25112;DHT22;13092;51.996;4.458;2023-03-02T13:37:59;8.70;99.90
25112;DHT22;13092;51.996;4.458;2023-03-02T13:40:46;8.70;99.90
25112;DHT22;13092;51.996;4.458;2023-03-02T13:43:29;8.80;99.90
25112;DHT22;13092;51.996;4.458;2023-03-02T13:46:00;8.80;99.90
25112;DHT22;13092;51.996;4.458;2023-03-02T13:48:32;8.80;99.90
25112;DHT22;13092;51.996;4.458;2023-03-02T13:51:02;8.80;99.90
25112;DHT22;13092;51.996;4.458;2023-03-02T13:53:31;8.70;99.90
25112;DHT22;13092;51.996;4.458;2023-03-02T13:56:04;8.80;99.90
25112;DHT22;13092;51.996;4.458;2023-03-02T13:58:36;8.90;99.90
25112;DHT22;13092;51.996;4.458;2023-03-02T14:01:05;8.80;99.90
25112;DHT22;13092;51.996;4.458;2023-03-02T14:03:36;8.80;99.90
25112;DHT22;13092;51.996;4.458;2023-03-02T14:06:05;8.90;99.90
25112;DHT22;13092;51.996;4.458;2023-03-02T14:08:33;8.90;99.90
25112;DHT22;13092;51.996;4.458;2023-03-02T14:11:03;9.00;99.90
25112;DHT22;13092;51.996;4.458;2023-03-02T14:13:35;9.00;99.90
25112;DHT22;13092;51.996;4.458;2023-03-02T14:16:06;9.00;99.90
25112;DHT22;13092;51.996;4.458;2023-03-02T14:18:38;8.90;99.90
25112;DHT22;13092;51.996;4.458;2023-03-02T14:21:11;8.90;99.90
25112;DHT22;13092;51.996;4.458;2023-03-02T14:23:41;8.90;99.90
25112;DHT22;13092;51.996;4.458;2023-03-02T14:26:22;8.90;99.90
25112;DHT22;13092;51.996;4.458;2023-03-02T14:28:55;8.80;99.90
25112;DHT22;13092;51.996;4.458;2023-03-02T14:31:33;8.80;99.90
25112;DHT22;13092;51.996;4.458;2023-03-02T14:34:08;8.90;99.90
25112;DHT22;13092;51.996;4.458;2023-03-02T14:36:39;9.00;99.90
25112;DHT22;13092;51.996;4.458;2023-03-02T14:39:18;9.00;99.90
25112;DHT22;13092;51.996;4.458;2023-03-02T14:42:11;9.10;99.90
25112;DHT22;13092;51.996;4.458;2023-03-02T14:44:40;9.10;99.90
25112;DHT22;13092;51.996;4.458;2023-03-02T14:47:12;9.30;99.90
25112;DHT22;13092;51.996;4.458;2023-03-02T14:49:44;9.20;99.90
25112;DHT22;13092;51.996;4.458;2023-03-02T14:52:17;9.20;99.90
25112;DHT22;13092;51.996;4.458;2023-03-02T14:54:49;9.10;99.90
25112;DHT22;13092;51.996;4.458;2023-03-02T14:57:20;9.00;99.90
25112;DHT22;13092;51.996;4.458;2023-03-02T14:59:51;9.10;99.90
25112;DHT22;13092;51.996;4.458;2023-03-02T15:02:21;9.10;99.90
25112;DHT22;13092;51.996;4.458;2023-03-02T15:04:54;9.00;99.90
25112;DHT22;13092;51.996;4.458;2023-03-02T15:07:24;8.90;99.90
25112;DHT22;13092;51.996;4.458;2023-03-02T15:09:53;9.00;99.90
25112;DHT22;13092;51.996;4.458;2023-03-02T15:12:21;8.90;99.90
25112;DHT22;13092;51.996;4.458;2023-03-02T15:14:50;9.00;99.90
25112;DHT22;13092;51.996;4.458;2023-03-02T15:17:18;9.00;99.90
25112;DHT22;13092;51.996;4.458;2023-03-02T15:19:47;9.00;99.90
25112;DHT22;13092;51.996;4.458;2023-03-02T15:22:16;9.20;99.90
25112;DHT22;13092;51.996;4.458;2023-03-02T15:24:45;9.20;99.90
25112;DHT22;13092;51.996;4.458;2023-03-02T15:27:13;9.10;99.90
25112;DHT22;13092;51.996;4.458;2023-03-02T15:29:43;9.10;99.90
25112;DHT22;13092;51.996;4.458;2023-03-02T15:32:12;9.20;99.90
25112;DHT22;13092;51.996;4.458;2023-03-02T15:34:40;9.10;99.90
25112;DHT22;13092;51.996;4.458;2023-03-02T15:37:09;9.40;99.90
25112;DHT22;13092;51.996;4.458;2023-03-02T15:39:39;9.10;99.90
25112;DHT22;13092;51.996;4.458;2023-03-02T15:42:08;9.10;99.90
25112;DHT22;13092;51.996;4.458;2023-03-02T15:44:39;9.10;99.90
25112;DHT22;13092;51.996;4.458;2023-03-02T15:47:09;9.10;99.90
25112;DHT22;13092;51.996;4.458;2023-03-02T15:49:37;9.10;99.90
25112;DHT22;13092;51.996;4.458;2023-03-02T15:52:05;9.10;99.90
25112;DHT22;13092;51.996;4.458;2023-03-02T15:54:34;9.20;99.90
25112;DHT22;13092;51.996;4.458;2023-03-02T15:57:03;9.20;99.90
25112;DHT22;13092;51.996;4.458;2023-03-02T15:59:31;9.10;99.90
25112;DHT22;13092;51.996;4.458;2023-03-02T16:02:00;9.10;99.90
25112;DHT22;13092;51.996;4.458;2023-03-02T16:04:30;8.90;99.90
25112;DHT22;13092;51.996;4.458;2023-03-02T16:06:58;8.70;99.90
25112;DHT22;13092;51.996;4.458;2023-03-02T16:09:27;8.60;99.90
25112;DHT22;13092;51.996;4.458;2023-03-02T16:11:56;8.50;99.90
25112;DHT22;13092;51.996;4.458;2023-03-02T16:14:26;8.50;99.90